createdAt,value
2024-02-04T00:02:25.214Z,8.78
2024-02-04T00:04:54.419Z,8.50
2024-02-04T00:07:22.822Z,8.48
2024-02-04T00:09:50.882Z,8.73
2024-02-04T00:12:19.114Z,8.58
2024-02-04T00:14:47.118Z,8.58
2024-02-04T00:17:16.164Z,8.41
2024-02-04T00:19:44.520Z,8.59
2024-02-04T00:22:12.593Z,8.27
2024-02-04T00:24:40.679Z,8.16
2024-02-04T00:27:09.804Z,8.50
2024-02-04T00:29:37.766Z,8.38
2024-02-04T00:32:06.043Z,8.53
2024-02-04T00:34:34.579Z,8.50
2024-02-04T00:37:02.648Z,8.37
2024-02-04T00:39:30.672Z,8.80
2024-02-04T00:41:58.844Z,8.57
2024-02-04T00:44:26.715Z,8.83
2024-02-04T00:46:54.620Z,8.63
2024-02-04T00:49:23.018Z,8.46
2024-02-04T00:51:51.088Z,8.35
2024-02-04T00:54:19.046Z,8.10
2024-02-04T00:56:47.303Z,8.09
2024-02-04T00:59:15.462Z,8.25
2024-02-04T01:01:44.337Z,7.96
2024-02-04T01:04:13.069Z,8.13
2024-02-04T01:06:51.335Z,8.11
2024-02-04T01:09:31.805Z,8.08
2024-02-04T01:11:59.754Z,8.26
2024-02-04T01:14:27.800Z,8.01
2024-02-04T01:16:56.034Z,8.07
2024-02-04T01:19:24.257Z,8.07
2024-02-04T01:21:52.485Z,8.50
2024-02-04T01:24:20.712Z,8.16
2024-02-04T01:26:48.659Z,8.01
2024-02-04T01:29:16.638Z,8.00
2024-02-04T01:31:44.818Z,8.04
2024-02-04T01:34:12.772Z,8.32
2024-02-04T01:36:40.859Z,8.12
2024-02-04T01:39:09.045Z,7.96
2024-02-04T01:41:37.463Z,8.16
2024-02-04T01:44:05.568Z,8.23
2024-02-04T01:46:33.674Z,8.06
2024-02-04T01:49:01.711Z,8.05
2024-02-04T01:51:29.768Z,7.98
2024-02-04T01:53:58.118Z,7.97
2024-02-04T01:56:26.417Z,7.98
2024-02-04T01:58:54.550Z,7.95
2024-02-04T02:01:24.302Z,7.77
2024-02-04T02:03:53.067Z,8.01
2024-02-04T02:06:21.506Z,8.13
2024-02-04T02:08:51.575Z,8.06
2024-02-04T02:11:28.679Z,8.20
2024-02-04T02:14:04.175Z,7.98
2024-02-04T02:16:34.036Z,7.96
2024-02-04T02:19:34.245Z,7.94
2024-02-04T02:22:30.719Z,7.82
2024-02-04T02:25:00.255Z,7.91
2024-02-04T02:27:28.660Z,7.91
2024-02-04T02:29:56.595Z,7.60
2024-02-04T02:32:25.416Z,7.56
2024-02-04T02:34:53.828Z,7.58
2024-02-04T02:38:00.108Z,7.61
2024-02-04T02:40:48.696Z,7.67
2024-02-04T02:43:17.787Z,7.76
2024-02-04T02:45:46.680Z,7.72
2024-02-04T02:48:15.307Z,7.55
2024-02-04T02:50:43.550Z,7.70
2024-02-04T02:53:11.786Z,7.65
2024-02-04T02:55:41.839Z,7.58
2024-02-04T02:58:10.018Z,7.73
2024-02-04T03:00:38.938Z,7.52
2024-02-04T03:03:06.996Z,7.65
2024-02-04T03:05:35.575Z,7.44
2024-02-04T03:08:04.050Z,7.57
2024-02-04T03:10:32.566Z,7.57
2024-02-04T03:13:01.152Z,7.57
2024-02-04T03:15:29.505Z,7.64
2024-02-04T03:17:57.717Z,7.48
2024-02-04T03:20:25.816Z,7.46
2024-02-04T03:22:53.990Z,7.67
2024-02-04T03:25:22.114Z,7.69
2024-02-04T03:27:50.049Z,7.76
2024-02-04T03:30:18.271Z,7.72
2024-02-04T03:32:46.368Z,7.70
2024-02-04T03:35:14.523Z,7.58
2024-02-04T03:37:42.758Z,7.42
2024-02-04T03:40:11.642Z,7.47
2024-02-04T03:42:41.698Z,7.44
2024-02-04T03:45:10.382Z,7.46
2024-02-04T03:47:38.441Z,7.46
2024-02-04T03:50:07.042Z,7.91
2024-02-04T03:52:36.551Z,7.60
2024-02-04T03:55:04.861Z,7.78
2024-02-04T03:57:34.044Z,8.00
2024-02-04T04:00:02.282Z,8.32
2024-02-04T04:02:39.642Z,8.16
2024-02-04T04:05:13.248Z,8.00
2024-02-04T04:07:42.224Z,7.93
2024-02-04T04:10:10.563Z,7.96
2024-02-04T04:12:39.180Z,7.97
2024-02-04T04:15:07.548Z,7.80
2024-02-04T04:17:35.871Z,8.19
2024-02-04T04:20:05.981Z,7.82
2024-02-04T04:22:34.136Z,8.21
2024-02-04T04:25:02.382Z,8.01
2024-02-04T04:27:30.526Z,8.33
2024-02-04T04:29:58.441Z,8.44
2024-02-04T04:32:26.611Z,8.40
2024-02-04T04:34:56.714Z,8.12
2024-02-04T04:37:24.850Z,8.28
2024-02-04T04:39:53.166Z,8.11
2024-02-04T04:42:21.165Z,8.09
2024-02-04T04:44:49.098Z,8.11
2024-02-04T04:47:17.245Z,8.15
2024-02-04T04:49:45.296Z,8.22
2024-02-04T04:52:14.006Z,7.91
2024-02-04T04:54:42.219Z,7.97
2024-02-04T04:57:10.187Z,8.17
2024-02-04T04:59:39.384Z,8.13
2024-02-04T05:02:07.664Z,8.29
2024-02-04T05:04:35.783Z,8.21
2024-02-04T05:07:04.056Z,8.01
2024-02-04T05:09:32.388Z,7.88
2024-02-04T05:12:00.310Z,8.06
2024-02-04T05:14:28.891Z,7.99
2024-02-04T05:16:56.998Z,7.89
2024-02-04T05:19:24.999Z,8.12
2024-02-04T05:21:53.016Z,7.86
2024-02-04T05:24:21.169Z,7.99
2024-02-04T05:26:49.027Z,7.93
2024-02-04T05:29:17.027Z,7.94
2024-02-04T05:31:45.347Z,7.73
2024-02-04T05:34:13.502Z,7.72
2024-02-04T05:36:42.611Z,8.00
2024-02-04T05:39:15.716Z,7.81
2024-02-04T05:41:44.090Z,7.74
2024-02-04T05:44:12.268Z,7.60
2024-02-04T05:46:40.550Z,7.79
2024-02-04T05:49:09.120Z,7.92
2024-02-04T05:51:44.327Z,7.66
2024-02-04T05:54:12.206Z,7.68
2024-02-04T05:56:40.353Z,7.55
2024-02-04T05:59:08.337Z,7.77
2024-02-04T06:01:36.379Z,7.60
2024-02-04T06:04:05.058Z,7.71
2024-02-04T06:06:33.256Z,7.64
2024-02-04T06:09:01.746Z,7.56
2024-02-04T06:11:29.981Z,7.55
2024-02-04T06:13:57.928Z,7.78
2024-02-04T06:16:27.365Z,7.66
2024-02-04T06:18:58.297Z,7.47
2024-02-04T06:21:26.502Z,7.72
2024-02-04T06:23:54.464Z,7.74
2024-02-04T06:26:22.644Z,7.51
2024-02-04T06:28:52.262Z,7.83
2024-02-04T06:31:20.304Z,8.06
2024-02-04T06:33:48.662Z,8.06
2024-02-04T06:36:16.778Z,8.00
2024-02-04T06:38:45.082Z,8.01
2024-02-04T06:41:13.329Z,8.04
2024-02-04T06:43:41.194Z,8.05
2024-02-04T06:46:09.131Z,8.12
2024-02-04T06:48:37.506Z,8.25
2024-02-04T06:51:05.604Z,8.07
2024-02-04T06:53:34.711Z,7.86
2024-02-04T06:56:05.473Z,7.78
2024-02-04T06:58:33.336Z,8.06
2024-02-04T07:01:01.745Z,7.79
2024-02-04T07:03:31.867Z,8.09
2024-02-04T07:06:00.793Z,8.23
2024-02-04T07:08:28.933Z,8.37
2024-02-04T07:10:59.997Z,8.42
2024-02-04T07:13:28.524Z,8.44
2024-02-04T07:15:56.827Z,8.56
2024-02-04T07:18:25.879Z,8.31
2024-02-04T07:20:54.110Z,8.36
2024-02-04T07:23:22.683Z,8.27
2024-02-04T07:25:51.027Z,8.23
2024-02-04T07:28:19.230Z,8.53
2024-02-04T07:30:47.316Z,8.50
2024-02-04T07:33:16.738Z,8.36
2024-02-04T07:35:44.998Z,8.40
2024-02-04T07:38:13.136Z,8.31
2024-02-04T07:40:41.536Z,8.33
2024-02-04T07:43:09.625Z,8.64
2024-02-04T07:45:38.900Z,8.33
2024-02-04T07:48:07.935Z,8.71
2024-02-04T07:50:36.138Z,8.88
2024-02-04T07:53:04.847Z,8.89
2024-02-04T07:55:33.163Z,9.00
2024-02-04T07:58:01.222Z,8.60
2024-02-04T08:00:29.397Z,8.67
2024-02-04T08:02:58.670Z,8.63
2024-02-04T08:05:26.732Z,8.64
2024-02-04T08:07:54.768Z,8.81
2024-02-04T08:10:23.294Z,8.96
2024-02-04T08:12:53.258Z,9.00
2024-02-04T08:15:21.631Z,9.05
2024-02-04T08:17:50.064Z,9.12
2024-02-04T08:20:20.185Z,9.12
2024-02-04T08:22:48.416Z,9.13
2024-02-04T08:25:17.895Z,9.37
2024-02-04T08:27:45.955Z,9.04
2024-02-04T08:30:14.156Z,9.34
2024-02-04T08:32:42.736Z,9.45
2024-02-04T08:35:10.791Z,9.79
2024-02-04T08:37:39.089Z,9.92
2024-02-04T08:40:09.507Z,9.94
2024-02-04T08:42:37.845Z,10.36
2024-02-04T08:45:06.554Z,10.19
2024-02-04T08:47:35.163Z,10.27
2024-02-04T08:50:03.617Z,10.29
2024-02-04T08:52:32.083Z,10.29
2024-02-04T08:55:01.254Z,10.34
2024-02-04T08:57:31.388Z,10.26
2024-02-04T08:59:59.391Z,10.38
2024-02-04T09:02:27.764Z,10.66
2024-02-04T09:04:55.796Z,10.73
2024-02-04T09:07:23.942Z,10.85
2024-02-04T09:09:52.486Z,11.19
2024-02-04T09:12:21.595Z,11.40
2024-02-04T09:14:50.805Z,11.67
2024-02-04T09:17:19.163Z,11.70
2024-02-04T09:19:50.912Z,12.00
2024-02-04T09:22:19.854Z,12.10
2024-02-04T09:24:47.880Z,12.00
2024-02-04T09:27:17.086Z,12.20
2024-02-04T09:29:45.543Z,12.34
2024-02-04T09:32:14.674Z,12.36
2024-02-04T09:34:44.636Z,12.46
2024-02-04T09:37:13.138Z,12.65
2024-02-04T09:39:41.232Z,12.38
2024-02-04T09:42:16.712Z,12.45
2024-02-04T09:44:45.300Z,12.12
2024-02-04T09:47:14.535Z,11.87
2024-02-04T09:49:44.139Z,12.08
2024-02-04T09:52:14.081Z,12.33
2024-02-04T09:54:48.358Z,12.09
2024-02-04T09:57:18.897Z,12.38
2024-02-04T09:59:50.031Z,12.61
2024-02-04T10:02:22.512Z,12.40
2024-02-04T10:04:51.244Z,11.94
2024-02-04T10:07:20.075Z,11.94
2024-02-04T10:09:48.435Z,11.96
2024-02-04T10:12:17.825Z,11.94
2024-02-04T10:14:46.278Z,11.83
2024-02-04T10:17:16.855Z,11.70
2024-02-04T10:19:49.906Z,11.41
2024-02-04T10:22:18.583Z,11.33
2024-02-04T10:24:49.510Z,11.44
2024-02-04T10:27:26.488Z,11.62
2024-02-04T10:30:01.012Z,11.61
2024-02-04T10:32:32.271Z,11.33
2024-02-04T10:35:02.022Z,11.27
2024-02-04T10:37:30.979Z,11.17
2024-02-04T10:40:02.279Z,11.51
2024-02-04T10:42:32.760Z,11.65
2024-02-04T10:45:02.210Z,11.59
2024-02-04T10:47:38.032Z,11.58
2024-02-04T10:50:07.832Z,11.47
2024-02-04T10:52:40.639Z,11.35
2024-02-04T10:55:12.730Z,11.23
2024-02-04T10:57:41.736Z,11.26
2024-02-04T11:00:13.073Z,11.31
2024-02-04T11:02:50.596Z,11.20
2024-02-04T11:05:19.843Z,11.29
2024-02-04T11:07:49.273Z,11.32
2024-02-04T11:10:18.736Z,11.25
2024-02-04T11:12:50.382Z,11.33
2024-02-04T11:15:22.565Z,11.35
2024-02-04T11:18:25.223Z,11.64
2024-02-04T11:21:31.312Z,11.52
2024-02-04T11:24:22.627Z,11.42
2024-02-04T11:26:51.879Z,11.58
2024-02-04T11:29:21.135Z,11.44
2024-02-04T11:31:49.449Z,11.77
2024-02-04T11:34:18.031Z,11.44
2024-02-04T11:36:46.292Z,11.33
2024-02-04T11:39:18.484Z,11.61
2024-02-04T11:41:48.225Z,11.86
2024-02-04T11:44:27.859Z,11.94
2024-02-04T11:46:56.532Z,12.13
2024-02-04T11:49:27.804Z,11.89
2024-02-04T11:51:56.309Z,11.96
2024-02-04T11:54:24.354Z,11.85
2024-02-04T11:56:54.723Z,11.95
2024-02-04T11:59:25.273Z,11.62
2024-02-04T12:01:57.181Z,11.96
2024-02-04T12:04:29.264Z,11.77
2024-02-04T12:06:57.888Z,11.87
2024-02-04T12:09:27.789Z,11.79
2024-02-04T12:11:56.023Z,11.94
2024-02-04T12:14:24.483Z,11.62
2024-02-04T12:16:53.436Z,11.70
2024-02-04T12:19:22.186Z,11.53
2024-02-04T12:21:50.513Z,11.65
2024-02-04T12:24:19.364Z,11.78
2024-02-04T12:26:48.490Z,11.80
2024-02-04T12:29:17.443Z,11.84
2024-02-04T12:31:46.513Z,11.76
2024-02-04T12:34:14.801Z,11.73
2024-02-04T12:36:46.146Z,12.09
2024-02-04T12:39:16.085Z,11.82
2024-02-04T12:41:44.137Z,11.70
2024-02-04T12:44:12.161Z,11.99
2024-02-04T12:46:40.659Z,11.78
2024-02-04T12:49:08.770Z,12.02
2024-02-04T12:51:39.809Z,12.05
2024-02-04T12:54:12.416Z,11.87
2024-02-04T12:56:51.856Z,11.72
2024-02-04T12:59:31.206Z,11.89
2024-02-04T13:02:07.391Z,11.83
2024-02-04T13:04:36.598Z,11.85
2024-02-04T13:07:10.871Z,11.87
2024-02-04T13:09:39.837Z,11.71
2024-02-04T13:12:10.246Z,11.81
2024-02-04T13:14:39.965Z,12.06
2024-02-04T13:17:08.559Z,11.86
2024-02-04T13:19:38.549Z,12.03
2024-02-04T13:22:07.848Z,11.84
2024-02-04T13:24:36.525Z,11.79
2024-02-04T13:27:05.630Z,11.76
2024-02-04T13:29:36.095Z,11.66
2024-02-04T13:32:05.824Z,11.95
2024-02-04T13:34:33.902Z,11.68
2024-02-04T13:37:02.658Z,11.83
2024-02-04T13:39:31.143Z,11.86
2024-02-04T13:41:59.236Z,11.73
2024-02-04T13:44:27.198Z,11.94
2024-02-04T13:46:56.176Z,12.02
2024-02-04T13:49:24.269Z,11.70
2024-02-04T13:51:52.522Z,11.83
2024-02-04T13:54:21.478Z,11.67
2024-02-04T13:56:49.656Z,11.89
2024-02-04T13:59:17.693Z,11.75
2024-02-04T14:01:46.473Z,11.89
2024-02-04T14:04:14.859Z,11.85
2024-02-04T14:06:43.015Z,11.72
2024-02-04T14:09:14.001Z,11.75
2024-02-04T14:11:42.473Z,11.61
2024-02-04T14:14:10.609Z,11.68
2024-02-04T14:16:38.864Z,11.60
2024-02-04T14:19:07.384Z,11.56
2024-02-04T14:21:35.707Z,11.80
2024-02-04T14:24:03.860Z,11.55
2024-02-04T14:26:32.172Z,11.59
2024-02-04T14:29:00.181Z,11.71
2024-02-04T14:31:29.049Z,11.40
2024-02-04T14:33:57.507Z,11.46
2024-02-04T14:36:25.789Z,11.47
2024-02-04T14:38:54.839Z,11.30
2024-02-04T14:41:23.315Z,11.46
2024-02-04T14:43:51.535Z,11.51
2024-02-04T14:46:19.682Z,11.31
2024-02-04T14:48:48.204Z,11.34
2024-02-04T14:51:16.286Z,11.18
2024-02-04T14:53:44.292Z,11.42
2024-02-04T14:56:12.799Z,11.34
2024-02-04T14:58:40.750Z,11.37
2024-02-04T15:01:10.476Z,11.24
2024-02-04T15:03:39.846Z,11.21
2024-02-04T15:06:07.955Z,10.97
2024-02-04T15:08:35.874Z,11.07
2024-02-04T15:11:04.925Z,10.96
2024-02-04T15:13:34.484Z,10.75
2024-02-04T15:16:03.093Z,10.87
2024-02-04T15:18:32.723Z,10.79
2024-02-04T15:21:02.655Z,10.58
2024-02-04T15:23:31.409Z,10.61
2024-02-04T15:26:00.213Z,10.53
2024-02-04T15:28:29.743Z,10.87
2024-02-04T15:30:58.184Z,10.67
2024-02-04T15:33:29.968Z,10.78
2024-02-04T15:35:58.452Z,10.65
2024-02-04T15:38:29.338Z,10.80
2024-02-04T15:40:57.821Z,10.63
2024-02-04T15:43:27.024Z,10.51
2024-02-04T15:45:59.233Z,10.65
2024-02-04T15:48:31.775Z,10.56
2024-02-04T15:51:00.821Z,10.65
2024-02-04T15:53:29.349Z,10.51
2024-02-04T15:55:58.156Z,10.38
2024-02-04T15:58:31.446Z,10.40
2024-02-04T16:01:01.648Z,10.49
2024-02-04T16:03:30.816Z,10.58
2024-02-04T16:05:59.879Z,10.33
2024-02-04T16:08:28.548Z,10.47
2024-02-04T16:10:59.747Z,10.43
2024-02-04T16:13:30.226Z,10.29
2024-02-04T16:16:03.637Z,10.49
2024-02-04T16:18:36.867Z,10.58
2024-02-04T16:21:05.551Z,10.30
2024-02-04T16:23:34.935Z,10.13
2024-02-04T16:26:04.004Z,10.29
2024-02-04T16:28:32.380Z,10.00
2024-02-04T16:31:00.787Z,10.01
2024-02-04T16:33:29.902Z,9.90
2024-02-04T16:35:59.585Z,10.14
2024-02-04T16:38:28.885Z,10.03
2024-02-04T16:40:57.296Z,8.88
2024-02-04T16:43:25.770Z,10.45
2024-02-04T16:45:55.440Z,10.20
2024-02-04T16:48:23.586Z,10.32
2024-02-04T16:50:52.360Z,10.40
2024-02-04T16:53:21.051Z,10.37
2024-02-04T16:55:49.461Z,10.14
2024-02-04T16:58:17.805Z,10.22
2024-02-04T17:00:47.230Z,10.31
2024-02-04T17:03:15.933Z,10.19
2024-02-04T17:05:51.600Z,10.11
2024-02-04T17:08:25.173Z,10.22
2024-02-04T17:10:54.161Z,10.09
2024-02-04T17:13:22.885Z,10.19
2024-02-04T17:15:51.032Z,10.14
2024-02-04T17:18:40.125Z,10.31
2024-02-04T17:21:10.126Z,10.19
2024-02-04T17:23:39.989Z,10.32
2024-02-04T17:26:10.025Z,10.30
2024-02-04T17:28:38.899Z,10.18
2024-02-04T17:31:07.749Z,10.24
2024-02-04T17:33:37.548Z,10.21
2024-02-04T17:36:06.432Z,10.14
2024-02-04T17:38:37.298Z,10.19
2024-02-04T17:41:06.254Z,10.42
2024-02-04T17:43:35.478Z,10.42
2024-02-04T17:46:05.813Z,10.39
2024-02-04T17:48:34.491Z,10.31
2024-02-04T17:51:10.031Z,10.34
2024-02-04T17:53:44.096Z,10.41
2024-02-04T17:56:17.467Z,10.54
2024-02-04T17:58:48.162Z,10.46
2024-02-04T18:01:21.435Z,10.63
2024-02-04T18:03:51.241Z,10.62
2024-02-04T18:06:21.008Z,10.51
2024-02-04T18:08:49.674Z,10.41
2024-02-04T18:11:23.691Z,10.56
2024-02-04T18:13:53.632Z,10.41
2024-02-04T18:16:24.324Z,10.36
2024-02-04T18:18:55.585Z,10.23
2024-02-04T18:21:25.314Z,10.45
2024-02-04T18:23:54.155Z,10.38
2024-02-04T18:26:30.284Z,10.36
2024-02-04T18:29:00.872Z,10.53
2024-02-04T18:31:31.904Z,10.31
2024-02-04T18:34:02.247Z,10.47
2024-02-04T18:36:30.613Z,10.48
2024-02-04T18:38:59.336Z,10.46
2024-02-04T18:41:28.271Z,10.36
2024-02-04T18:43:56.424Z,10.57
2024-02-04T18:46:27.988Z,10.38
2024-02-04T18:48:59.788Z,10.57
2024-02-04T18:51:28.265Z,10.51
2024-02-04T18:53:56.840Z,10.56
2024-02-04T18:56:25.019Z,10.38
2024-02-04T18:58:55.567Z,10.40
2024-02-04T19:01:25.286Z,10.35
2024-02-04T19:03:55.785Z,10.51
2024-02-04T19:06:28.409Z,10.34
2024-02-04T19:08:56.647Z,10.40
2024-02-04T19:11:25.816Z,10.49
2024-02-04T19:13:55.707Z,10.14
2024-02-04T19:16:25.099Z,10.34
2024-02-04T19:18:57.764Z,10.33
2024-02-04T19:21:26.274Z,10.19
2024-02-04T19:23:54.912Z,10.15
2024-02-04T19:26:29.966Z,10.05
2024-02-04T19:28:58.838Z,9.95
2024-02-04T19:31:30.604Z,9.66
2024-02-04T19:34:02.173Z,9.66
2024-02-04T19:36:30.949Z,9.82
2024-02-04T19:38:59.648Z,9.62
2024-02-04T19:41:28.084Z,9.47
2024-02-04T19:43:56.185Z,9.53
2024-02-04T19:46:25.092Z,9.39
2024-02-04T19:48:53.406Z,9.57
2024-02-04T19:51:21.653Z,9.38
2024-02-04T19:53:50.655Z,9.62
2024-02-04T19:56:19.114Z,9.47
2024-02-04T19:58:47.636Z,9.47
2024-02-04T20:01:16.583Z,9.34
2024-02-04T20:03:45.135Z,9.42
2024-02-04T20:06:13.603Z,9.59
2024-02-04T20:08:41.939Z,9.53
2024-02-04T20:11:10.520Z,9.69
2024-02-04T20:13:42.775Z,9.69
2024-02-04T20:16:11.314Z,9.47
2024-02-04T20:18:40.983Z,9.68
2024-02-04T20:21:09.577Z,9.78
2024-02-04T20:23:37.838Z,9.70
2024-02-04T20:26:06.099Z,9.87
2024-02-04T20:28:37.175Z,9.89
2024-02-04T20:31:08.206Z,9.63
2024-02-04T20:33:36.860Z,9.99
2024-02-04T20:36:05.688Z,9.72
2024-02-04T20:38:34.391Z,9.80
2024-02-04T20:41:04.012Z,10.04
2024-02-04T20:43:32.552Z,10.02
2024-02-04T20:46:02.403Z,10.03
2024-02-04T20:48:31.776Z,10.01
2024-02-04T20:51:00.151Z,10.04
2024-02-04T20:53:29.010Z,10.23
2024-02-04T20:55:57.459Z,10.20
2024-02-04T20:58:25.793Z,10.11
2024-02-04T21:00:54.228Z,10.13
2024-02-04T21:03:22.456Z,10.03
2024-02-04T21:05:51.158Z,10.07
2024-02-04T21:08:19.799Z,10.28
2024-02-04T21:10:47.897Z,10.16
2024-02-04T21:13:18.050Z,10.24
2024-02-04T21:15:46.145Z,10.23
2024-02-04T21:18:14.246Z,10.14
2024-02-04T21:20:43.784Z,10.28
2024-02-04T21:23:11.956Z,10.11
2024-02-04T21:25:40.361Z,10.19
2024-02-04T21:28:08.846Z,9.92
2024-02-04T21:30:38.115Z,9.84
2024-02-04T21:33:06.130Z,9.62
2024-02-04T21:35:34.421Z,9.79
2024-02-04T21:38:03.284Z,9.61
2024-02-04T21:40:31.938Z,9.37
2024-02-04T21:43:00.237Z,9.40
2024-02-04T21:45:28.183Z,9.40
2024-02-04T21:47:56.139Z,9.23
2024-02-04T21:50:24.715Z,9.28
2024-02-04T21:52:52.656Z,9.36
2024-02-04T21:55:20.721Z,9.38
2024-02-04T21:57:49.115Z,9.30
2024-02-04T22:00:17.318Z,9.46
2024-02-04T22:02:45.659Z,9.58
2024-02-04T22:05:13.551Z,9.46
2024-02-04T22:07:41.739Z,9.64
2024-02-04T22:10:10.285Z,9.48
2024-02-04T22:12:38.311Z,9.45
2024-02-04T22:15:09.167Z,9.44
2024-02-04T22:17:37.779Z,9.40
2024-02-04T22:20:08.026Z,9.49
2024-02-04T22:22:36.383Z,9.64
2024-02-04T22:25:04.843Z,9.53
2024-02-04T22:27:33.275Z,9.74
2024-02-04T22:30:03.674Z,9.71
2024-02-04T22:32:31.981Z,9.83
2024-02-04T22:34:59.963Z,9.96
2024-02-04T22:37:27.966Z,9.83
2024-02-04T22:39:56.217Z,9.75
2024-02-04T22:42:24.829Z,9.94
2024-02-04T22:44:53.333Z,9.96
2024-02-04T22:47:21.555Z,9.76
2024-02-04T22:49:50.059Z,9.63
2024-02-04T22:52:18.208Z,9.69
2024-02-04T22:54:46.675Z,9.94
2024-02-04T22:57:14.590Z,9.88
2024-02-04T22:59:42.737Z,9.75
2024-02-04T23:02:11.460Z,9.78
2024-02-04T23:04:41.398Z,9.77
2024-02-04T23:07:09.655Z,9.97
2024-02-04T23:09:37.870Z,9.90
2024-02-04T23:12:07.152Z,9.79
2024-02-04T23:14:35.169Z,9.79
2024-02-04T23:17:05.304Z,9.80
2024-02-04T23:19:33.429Z,9.78
2024-02-04T23:22:01.519Z,9.69
2024-02-04T23:24:29.708Z,9.87
2024-02-04T23:26:57.923Z,9.92
2024-02-04T23:29:25.907Z,9.91
2024-02-04T23:31:54.090Z,9.97
2024-02-04T23:34:22.175Z,9.88
2024-02-04T23:36:50.154Z,9.74
2024-02-04T23:39:20.002Z,10.09
2024-02-04T23:41:47.992Z,10.13
2024-02-04T23:44:16.567Z,10.00
2024-02-04T23:46:44.748Z,10.00
2024-02-04T23:49:17.149Z,10.13
2024-02-04T23:51:45.516Z,10.24
2024-02-04T23:54:14.444Z,10.12
2024-02-04T23:56:42.968Z,10.42
2024-02-04T23:59:12.489Z,10.39
